createdAt,value
2016-05-25T00:00:13.313Z,1008.77
2016-05-25T00:01:13.363Z,1008.8
2016-05-25T00:02:13.411Z,1008.82
2016-05-25T00:03:13.461Z,1008.81
2016-05-25T00:04:13.511Z,1008.81
2016-05-25T00:05:13.577Z,1008.8
2016-05-25T00:06:13.627Z,1008.81
2016-05-25T00:07:13.660Z,1008.82
2016-05-25T00:08:13.710Z,1008.83
2016-05-25T00:09:13.760Z,1008.76
2016-05-25T00:10:13.808Z,1008.75
2016-05-25T00:11:13.858Z,1008.79
2016-05-25T00:12:13.907Z,1008.73
2016-05-25T00:13:13.973Z,1008.75
2016-05-25T00:14:14.007Z,1008.73
2016-05-25T00:15:14.071Z,1008.74
2016-05-25T00:16:14.122Z,1008.7
2016-05-25T00:17:14.171Z,1008.72
2016-05-25T00:18:14.221Z,1008.67
2016-05-25T00:19:14.270Z,1008.7
2016-05-25T00:20:14.320Z,1008.72
2016-05-25T00:21:14.370Z,1008.68
2016-05-25T00:22:14.419Z,1008.69
2016-05-25T00:23:14.468Z,1008.68
2016-05-25T00:24:14.518Z,1008.64
2016-05-25T00:25:14.568Z,1008.64
2016-05-25T00:26:14.617Z,1008.65
2016-05-25T00:27:14.667Z,1008.61
2016-05-25T00:28:14.717Z,1008.62
2016-05-25T00:29:14.767Z,1008.63
2016-05-25T00:30:14.816Z,1008.63
2016-05-25T00:31:14.865Z,1008.64
2016-05-25T00:32:14.914Z,1008.66
2016-05-25T00:33:14.964Z,1008.65
2016-05-25T00:34:15.014Z,1008.67
2016-05-25T00:35:15.063Z,1008.67
2016-05-25T00:36:15.113Z,1008.64
2016-05-25T00:37:15.162Z,1008.59
2016-05-25T00:38:15.213Z,1008.59
2016-05-25T00:39:15.262Z,1008.61
2016-05-25T00:40:15.311Z,1008.6
2016-05-25T00:41:15.377Z,1008.61
2016-05-25T00:42:15.426Z,1008.64
2016-05-25T00:43:15.476Z,1008.65
2016-05-25T00:44:15.524Z,1008.66
2016-05-25T00:45:15.574Z,1008.68
2016-05-25T00:46:15.624Z,1008.68
2016-05-25T00:47:15.674Z,1008.69
2016-05-25T00:48:15.724Z,1008.7
2016-05-25T00:49:15.773Z,1008.66
2016-05-25T00:50:15.823Z,1008.71
2016-05-25T00:51:15.856Z,1008.67
2016-05-25T00:52:15.921Z,1008.67
2016-05-25T00:53:15.971Z,1008.66
2016-05-25T00:54:16.020Z,1008.65
2016-05-25T00:55:16.071Z,1008.67
2016-05-25T00:56:16.136Z,1008.65
2016-05-25T00:57:16.169Z,1008.64
2016-05-25T00:58:16.219Z,1008.66
2016-05-25T00:59:16.269Z,1008.66
2016-05-25T01:00:16.318Z,1008.67
2016-05-25T01:01:16.367Z,1008.69
2016-05-25T01:02:16.417Z,1008.7
2016-05-25T01:03:16.467Z,1008.7
2016-05-25T01:04:16.516Z,1008.68
2016-05-25T01:05:16.566Z,1008.7
2016-05-25T01:06:16.615Z,1008.7
2016-05-25T01:07:16.665Z,1008.66
2016-05-25T01:08:16.714Z,1008.66
2016-05-25T01:09:16.780Z,1008.68
2016-05-25T01:10:16.814Z,1008.69
2016-05-25T01:11:16.879Z,1008.71
2016-05-25T01:12:16.929Z,1008.7
2016-05-25T01:13:16.962Z,1008.75
2016-05-25T01:14:17.027Z,1008.74
2016-05-25T01:15:17.093Z,1008.74
2016-05-25T01:16:17.470Z,1008.75
2016-05-25T01:17:17.176Z,1008.72
2016-05-25T01:18:17.226Z,1008.73
2016-05-25T01:19:17.260Z,1008.75
2016-05-25T01:20:17.325Z,1008.75
2016-05-25T01:21:17.374Z,1008.73
2016-05-25T01:22:17.424Z,1008.7
2016-05-25T01:23:17.473Z,1008.77
2016-05-25T01:24:17.523Z,1008.73
2016-05-25T01:25:17.573Z,1008.72
2016-05-25T01:26:17.622Z,1008.7
2016-05-25T01:27:17.673Z,1008.71
2016-05-25T01:28:17.722Z,1008.69
2016-05-25T01:29:17.771Z,1008.74
2016-05-25T01:30:17.820Z,1008.74
2016-05-25T01:31:17.917Z,1008.73
2016-05-25T01:32:17.920Z,1008.7
2016-05-25T01:33:17.985Z,1008.68
2016-05-25T01:34:18.019Z,1008.66
2016-05-25T01:35:18.084Z,1008.67
2016-05-25T01:36:18.133Z,1008.64
2016-05-25T01:37:18.183Z,1008.63
2016-05-25T01:38:18.232Z,1008.6
2016-05-25T01:39:18.266Z,1008.63
2016-05-25T01:40:18.333Z,1008.66
2016-05-25T01:41:18.382Z,1008.66
2016-05-25T01:42:18.431Z,1008.66
2016-05-25T01:43:18.465Z,1008.64
2016-05-25T01:44:18.530Z,1008.65
2016-05-25T01:45:18.580Z,1008.64
2016-05-25T01:46:18.629Z,1008.64
2016-05-25T01:47:18.679Z,1008.62
2016-05-25T01:48:18.729Z,1008.6
2016-05-25T01:49:18.779Z,1008.59
2016-05-25T01:50:18.827Z,1008.55
2016-05-25T01:51:18.876Z,1008.59
2016-05-25T01:52:18.927Z,1008.6
2016-05-25T01:53:18.976Z,1008.56
2016-05-25T01:54:19.026Z,1008.55
2016-05-25T01:55:19.075Z,1008.6
2016-05-25T01:56:19.125Z,1008.58
2016-05-25T01:57:19.175Z,1008.59
2016-05-25T01:58:19.223Z,1008.53
2016-05-25T01:59:19.273Z,1008.55
2016-05-25T02:00:19.354Z,1008.54
2016-05-25T02:01:19.373Z,1008.51
2016-05-25T02:02:19.423Z,1008.49
2016-05-25T02:03:19.472Z,1008.47
2016-05-25T02:04:19.522Z,1008.45
2016-05-25T02:05:19.571Z,1008.49
2016-05-25T02:06:19.620Z,1008.52
2016-05-25T02:07:19.670Z,1008.51
2016-05-25T02:08:19.735Z,1008.5
2016-05-25T02:09:19.769Z,1008.49
2016-05-25T02:10:19.819Z,1008.5
2016-05-25T02:11:19.884Z,1008.51
2016-05-25T02:12:19.934Z,1008.5
2016-05-25T02:13:19.968Z,1008.53
2016-05-25T02:14:20.033Z,1008.49
2016-05-25T02:15:20.082Z,1008.49
2016-05-25T02:16:20.116Z,1008.51
2016-05-25T02:17:20.181Z,1008.49
2016-05-25T02:18:20.231Z,1008.53
2016-05-25T02:19:20.280Z,1008.53
2016-05-25T02:20:20.330Z,1008.51
2016-05-25T02:21:20.379Z,1008.54
2016-05-25T02:22:20.445Z,1008.5
2016-05-25T02:23:20.479Z,1008.49
2016-05-25T02:24:20.529Z,1008.49
2016-05-25T02:25:20.578Z,1008.5
2016-05-25T02:26:20.628Z,1008.5
2016-05-25T02:27:20.676Z,1008.46
2016-05-25T02:28:20.726Z,1008.45
2016-05-25T02:29:20.775Z,1008.5
2016-05-25T02:30:20.825Z,1008.52
2016-05-25T02:31:20.906Z,1008.46
2016-05-25T02:32:20.940Z,1008.47
2016-05-25T02:33:20.990Z,1008.49
2016-05-25T02:34:21.040Z,1008.49
2016-05-25T02:35:21.089Z,1008.46
2016-05-25T02:36:21.139Z,1008.48
2016-05-25T02:37:21.172Z,1008.48
2016-05-25T02:38:21.222Z,1008.4
2016-05-25T02:39:21.287Z,1008.4
2016-05-25T02:40:21.337Z,1008.38
2016-05-25T02:41:21.386Z,1008.39
2016-05-25T02:42:21.436Z,1008.42
2016-05-25T02:43:21.486Z,1008.4
2016-05-25T02:44:21.535Z,1008.41
2016-05-25T02:45:21.585Z,1008.44
2016-05-25T02:46:21.635Z,1008.39
2016-05-25T02:47:21.684Z,1008.45
2016-05-25T02:48:21.733Z,1008.42
2016-05-25T02:49:21.782Z,1008.4
2016-05-25T02:50:21.832Z,1008.35
2016-05-25T02:51:21.883Z,1008.37
2016-05-25T02:52:21.931Z,1008.37
2016-05-25T02:53:21.997Z,1008.37
2016-05-25T02:54:22.031Z,1008.37
2016-05-25T02:55:22.081Z,1008.39
2016-05-25T02:56:22.130Z,1008.36
2016-05-25T02:57:22.179Z,1008.36
2016-05-25T02:58:22.229Z,1008.34
2016-05-25T02:59:22.278Z,1008.32
2016-05-25T03:00:22.328Z,1008.29
2016-05-25T03:01:22.378Z,1008.32
2016-05-25T03:02:22.428Z,1008.32
2016-05-25T03:03:22.477Z,1008.35
2016-05-25T03:04:22.542Z,1008.35
2016-05-25T03:05:22.591Z,1008.33
2016-05-25T03:06:22.642Z,1008.3
2016-05-25T03:07:22.691Z,1008.32
2016-05-25T03:08:22.741Z,1008.3
2016-05-25T03:09:22.774Z,1008.31
2016-05-25T03:10:22.839Z,1008.31
2016-05-25T03:11:22.873Z,1008.29
2016-05-25T03:12:22.923Z,1008.3
2016-05-25T03:13:22.988Z,1008.35
2016-05-25T03:14:23.038Z,1008.38
2016-05-25T03:15:23.087Z,1008.38
2016-05-25T03:16:23.137Z,1008.35
2016-05-25T03:17:23.186Z,1008.32
2016-05-25T03:18:23.236Z,1008.31
2016-05-25T03:19:23.285Z,1008.28
2016-05-25T03:20:23.335Z,1008.31
2016-05-25T03:21:23.385Z,1008.32
2016-05-25T03:22:23.435Z,1008.35
2016-05-25T03:23:23.484Z,1008.33
2016-05-25T03:24:23.534Z,1008.35
2016-05-25T03:25:23.583Z,1008.33
2016-05-25T03:26:23.633Z,1008.27
2016-05-25T03:27:23.682Z,1008.28
2016-05-25T03:28:23.732Z,1008.3
2016-05-25T03:29:23.781Z,1008.22
2016-05-25T03:30:23.831Z,1008.24
2016-05-25T03:31:23.990Z,1008.22
2016-05-25T03:32:23.930Z,1008.24
2016-05-25T03:33:23.979Z,1008.25
2016-05-25T03:34:24.045Z,1008.26
2016-05-25T03:35:24.078Z,1008.26
2016-05-25T03:36:24.128Z,1008.28
2016-05-25T03:37:24.178Z,1008.29
2016-05-25T03:38:24.227Z,1008.28
2016-05-25T03:39:24.277Z,1008.28
2016-05-25T03:40:24.342Z,1008.28
2016-05-25T03:41:24.391Z,1008.3
2016-05-25T03:42:24.441Z,1008.32
2016-05-25T03:43:24.491Z,1008.33
2016-05-25T03:44:24.540Z,1008.36
2016-05-25T03:45:24.590Z,1008.36
2016-05-25T03:46:25.061Z,1008.37
2016-05-25T03:47:24.689Z,1008.38
2016-05-25T03:48:24.739Z,1008.4
2016-05-25T03:49:24.788Z,1008.37
2016-05-25T03:50:24.838Z,1008.39
2016-05-25T03:51:24.887Z,1008.39
2016-05-25T03:52:24.937Z,1008.4
2016-05-25T03:53:24.987Z,1008.45
2016-05-25T03:54:25.035Z,1008.39
2016-05-25T03:55:25.086Z,1008.43
2016-05-25T03:56:25.135Z,1008.35
2016-05-25T03:57:25.185Z,1008.32
2016-05-25T03:58:25.235Z,1008.31
2016-05-25T03:59:25.285Z,1008.28
2016-05-25T04:00:25.334Z,1008.27
2016-05-25T04:01:25.383Z,1008.29
2016-05-25T04:02:25.433Z,1008.24
2016-05-25T04:03:25.482Z,1008.28
2016-05-25T04:04:25.532Z,1008.27
2016-05-25T04:05:25.582Z,1008.26
2016-05-25T04:06:25.631Z,1008.25
2016-05-25T04:07:25.680Z,1008.28
2016-05-25T04:08:25.731Z,1008.23
2016-05-25T04:09:25.780Z,1008.2
2016-05-25T04:10:25.829Z,1008.18
2016-05-25T04:11:25.894Z,1008.21
2016-05-25T04:12:25.944Z,1008.2
2016-05-25T04:13:25.978Z,1008.18
2016-05-25T04:14:26.044Z,1008.19
2016-05-25T04:15:26.077Z,1008.22
2016-05-25T04:16:26.142Z,1008.21
2016-05-25T04:17:26.176Z,1008.27
2016-05-25T04:18:26.225Z,1008.24
2016-05-25T04:19:26.298Z,1008.2
2016-05-25T04:20:26.388Z,1008.19
2016-05-25T04:21:26.461Z,1008.21
2016-05-25T04:22:26.535Z,1008.17
2016-05-25T04:23:26.607Z,1008.21
2016-05-25T04:24:26.681Z,1008.21
2016-05-25T04:25:26.724Z,1008.25
2016-05-25T04:26:26.782Z,1008.23
2016-05-25T04:27:26.840Z,1008.22
2016-05-25T04:28:26.898Z,1008.25
2016-05-25T04:29:26.951Z,1008.22
2016-05-25T04:30:27.004Z,1008.22
2016-05-25T04:31:27.056Z,1008.19
2016-05-25T04:32:27.108Z,1008.2
2016-05-25T04:33:27.161Z,1008.22
2016-05-25T04:34:29.650Z,1008.18
2016-05-25T04:35:27.262Z,1008.17
2016-05-25T04:36:27.314Z,1008.11
2016-05-25T04:37:27.364Z,1008.09
2016-05-25T04:38:27.416Z,1008.09
2016-05-25T04:39:27.700Z,1008.09
2016-05-25T04:40:27.514Z,1008.11
2016-05-25T04:41:27.565Z,1008.12
2016-05-25T04:42:27.615Z,1008.09
2016-05-25T04:43:27.664Z,1008.12
2016-05-25T04:44:29.668Z,1008.12
2016-05-25T04:45:27.764Z,1008.11
2016-05-25T04:46:28.360Z,1008.06
2016-05-25T04:47:27.863Z,1008.06
2016-05-25T04:48:27.928Z,1008.05
2016-05-25T04:49:27.978Z,1008
2016-05-25T04:50:28.028Z,1008.02
2016-05-25T04:51:28.623Z,1008.05
2016-05-25T04:52:28.126Z,1008.09
2016-05-25T04:53:28.160Z,1008.07
2016-05-25T04:54:28.226Z,1008.05
2016-05-25T04:55:28.275Z,1008.05
2016-05-25T04:56:28.324Z,1008.05
2016-05-25T04:57:28.374Z,1008.04
2016-05-25T04:58:28.408Z,1008.08
2016-05-25T04:59:28.474Z,1008.03
2016-05-25T05:00:28.523Z,1008.05
2016-05-25T05:01:28.854Z,1008.05
2016-05-25T05:02:28.622Z,1008.06
2016-05-25T05:03:28.672Z,1008.09
2016-05-25T05:04:28.721Z,1008.13
2016-05-25T05:05:28.771Z,1008.1
2016-05-25T05:06:28.820Z,1008.15
2016-05-25T05:07:28.870Z,1008.17
2016-05-25T05:08:28.919Z,1008.15
2016-05-25T05:09:28.968Z,1008.14
2016-05-25T05:10:29.018Z,1008.17
2016-05-25T05:11:29.068Z,1008.18
2016-05-25T05:12:29.118Z,1008.15
2016-05-25T05:13:29.167Z,1008.14
2016-05-25T05:14:29.217Z,1008.17
2016-05-25T05:15:29.267Z,1008.14
2016-05-25T05:16:29.316Z,1008.14
2016-05-25T05:17:29.365Z,1008.15
2016-05-25T05:18:29.415Z,1008.12
2016-05-25T05:19:29.464Z,1008.14
2016-05-25T05:20:29.515Z,1008.13
2016-05-25T05:21:29.564Z,1008.16
2016-05-25T05:22:29.614Z,1008.13
2016-05-25T05:23:29.663Z,1008.16
2016-05-25T05:24:29.712Z,1008.15
2016-05-25T05:25:29.778Z,1008.13
2016-05-25T05:26:29.812Z,1008.17
2016-05-25T05:27:29.861Z,1008.16
2016-05-25T05:28:29.927Z,1008.1
2016-05-25T05:29:29.975Z,1008.16
2016-05-25T05:30:30.025Z,1008.15
2016-05-25T05:31:30.122Z,1008.16
2016-05-25T05:32:30.125Z,1008.14
2016-05-25T05:33:30.158Z,1008.16
2016-05-25T05:34:30.224Z,1008.15
2016-05-25T05:35:30.258Z,1008.16
2016-05-25T05:36:30.308Z,1008.19
2016-05-25T05:37:30.372Z,1008.1
2016-05-25T05:38:30.422Z,1008.18
2016-05-25T05:39:30.471Z,1008.21
2016-05-25T05:40:30.521Z,1008.21
2016-05-25T05:41:30.571Z,1008.31
2016-05-25T05:42:30.620Z,1008.3
2016-05-25T05:43:30.670Z,1008.31
2016-05-25T05:44:30.719Z,1008.29
2016-05-25T05:45:30.769Z,1008.32
2016-05-25T05:46:30.818Z,1008.28
2016-05-25T05:47:30.868Z,1008.31
2016-05-25T05:48:30.918Z,1008.29
2016-05-25T05:49:30.967Z,1008.26
2016-05-25T05:50:31.017Z,1008.28
2016-05-25T05:51:31.067Z,1008.32
2016-05-25T05:52:31.116Z,1008.31
2016-05-25T05:53:31.181Z,1008.37
2016-05-25T05:54:31.214Z,1008.35
2016-05-25T05:55:31.265Z,1008.41
2016-05-25T05:56:31.314Z,1008.42
2016-05-25T05:57:31.380Z,1008.43
2016-05-25T05:58:31.414Z,1008.42
2016-05-25T05:59:31.463Z,1008.4
2016-05-25T06:00:31.513Z,1008.43
2016-05-25T06:01:31.874Z,1008.43
2016-05-25T06:02:31.611Z,1008.47
2016-05-25T06:03:31.677Z,1008.5
2016-05-25T06:04:31.710Z,1008.5
2016-05-25T06:05:31.760Z,1008.48
2016-05-25T06:06:31.810Z,1008.5
2016-05-25T06:07:31.859Z,1008.51
2016-05-25T06:08:31.925Z,1008.5
2016-05-25T06:09:31.958Z,1008.49
2016-05-25T06:10:32.008Z,1008.48
2016-05-25T06:11:32.058Z,1008.49
2016-05-25T06:12:32.107Z,1008.49
2016-05-25T06:13:32.173Z,1008.52
2016-05-25T06:14:32.206Z,1008.48
2016-05-25T06:15:32.271Z,1008.47
2016-05-25T06:16:32.352Z,1008.47
2016-05-25T06:17:32.370Z,1008.46
2016-05-25T06:18:32.608Z,1008.45
2016-05-25T06:19:32.470Z,1008.44
2016-05-25T06:20:32.519Z,1008.46
2016-05-25T06:21:32.554Z,1008.49
2016-05-25T06:22:32.618Z,1008.53
2016-05-25T06:23:32.668Z,1008.52
2016-05-25T06:24:32.703Z,1008.54
2016-05-25T06:25:32.767Z,1008.53
2016-05-25T06:26:32.817Z,1008.57
2016-05-25T06:27:32.866Z,1008.56
2016-05-25T06:28:32.916Z,1008.56
2016-05-25T06:29:32.965Z,1008.57
2016-05-25T06:30:33.014Z,1008.59
2016-05-25T06:31:33.064Z,1008.55
2016-05-25T06:32:33.114Z,1008.54
2016-05-25T06:33:36.867Z,1008.52
2016-05-25T06:34:33.214Z,1008.56
2016-05-25T06:35:33.263Z,1008.58
2016-05-25T06:36:33.313Z,1008.55
2016-05-25T06:37:33.363Z,1008.55
2016-05-25T06:38:33.411Z,1008.57
2016-05-25T06:39:33.461Z,1008.58
2016-05-25T06:40:33.510Z,1008.58
2016-05-25T06:41:33.561Z,1008.56
2016-05-25T06:42:33.610Z,1008.59
2016-05-25T06:43:33.660Z,1008.6
2016-05-25T06:44:33.709Z,1008.61
2016-05-25T06:45:33.759Z,1008.62
2016-05-25T06:46:33.807Z,1008.63
2016-05-25T06:47:33.857Z,1008.59
2016-05-25T06:48:33.907Z,1008.65
2016-05-25T06:49:33.956Z,1008.65
2016-05-25T06:50:34.007Z,1008.7
2016-05-25T06:51:34.056Z,1008.64
2016-05-25T06:52:34.105Z,1008.71
2016-05-25T06:53:34.171Z,1008.68
2016-05-25T06:54:34.220Z,1008.67
2016-05-25T06:55:34.254Z,1008.69
2016-05-25T06:56:34.304Z,1008.67
2016-05-25T06:57:34.353Z,1008.69
2016-05-25T06:58:34.403Z,1008.68
2016-05-25T06:59:34.452Z,1008.74
2016-05-25T07:00:34.502Z,1008.71
2016-05-25T07:01:34.567Z,1008.68
2016-05-25T07:02:34.601Z,1008.75
2016-05-25T07:03:34.666Z,1008.78
2016-05-25T07:04:34.716Z,1008.76
2016-05-25T07:05:34.766Z,1008.79
2016-05-25T07:06:34.815Z,1008.76
2016-05-25T07:07:34.864Z,1008.77
2016-05-25T07:08:37.024Z,1008.72
2016-05-25T07:09:34.963Z,1008.72
2016-05-25T07:10:35.013Z,1008.75
2016-05-25T07:11:35.047Z,1008.8
2016-05-25T07:12:35.112Z,1008.77
2016-05-25T07:13:35.162Z,1008.74
2016-05-25T07:14:35.212Z,1008.75
2016-05-25T07:15:35.260Z,1008.78
2016-05-25T07:16:35.451Z,1008.78
2016-05-25T07:17:35.360Z,1008.8
2016-05-25T07:18:35.410Z,1008.77
2016-05-25T07:19:35.459Z,1008.71
2016-05-25T07:20:35.509Z,1008.77
2016-05-25T07:21:35.559Z,1008.79
2016-05-25T07:22:35.609Z,1008.77
2016-05-25T07:23:35.657Z,1008.83
2016-05-25T07:24:35.707Z,1008.78
2016-05-25T07:25:35.756Z,1008.81
2016-05-25T07:26:35.806Z,1008.83
2016-05-25T07:27:35.856Z,1008.84
2016-05-25T07:28:35.905Z,1008.86
2016-05-25T07:29:35.955Z,1008.81
2016-05-25T07:30:36.005Z,1008.8
2016-05-25T07:31:36.226Z,1008.82
2016-05-25T07:32:36.119Z,1008.82
2016-05-25T07:33:36.169Z,1008.8
2016-05-25T07:34:36.203Z,1008.77
2016-05-25T07:35:36.252Z,1008.76
2016-05-25T07:36:36.303Z,1008.81
2016-05-25T07:37:36.352Z,1008.78
2016-05-25T07:38:37.245Z,1008.83
2016-05-25T07:39:36.450Z,1008.79
2016-05-25T07:40:36.500Z,1008.83
2016-05-25T07:41:36.565Z,1008.81
2016-05-25T07:42:36.599Z,1008.79
2016-05-25T07:43:36.665Z,1008.82
2016-05-25T07:44:36.714Z,1008.76
2016-05-25T07:45:36.763Z,1008.8
2016-05-25T07:46:36.813Z,1008.8
2016-05-25T07:47:36.863Z,1008.79
2016-05-25T07:48:36.912Z,1008.73
2016-05-25T07:49:36.963Z,1008.77
2016-05-25T07:50:37.012Z,1008.75
2016-05-25T07:51:37.155Z,1008.78
2016-05-25T07:52:37.110Z,1008.77
2016-05-25T07:53:37.145Z,1008.77
2016-05-25T07:54:37.210Z,1008.8
2016-05-25T07:55:37.244Z,1008.8
2016-05-25T07:56:37.309Z,1008.77
2016-05-25T07:57:37.358Z,1008.76
2016-05-25T07:58:37.409Z,1008.78
2016-05-25T07:59:37.458Z,1008.8
2016-05-25T08:00:37.506Z,1008.8
2016-05-25T08:01:37.556Z,1008.81
2016-05-25T08:02:37.606Z,1008.84
2016-05-25T08:03:38.219Z,1008.87
2016-05-25T08:04:37.706Z,1008.86
2016-05-25T08:05:37.755Z,1008.94
2016-05-25T08:06:37.805Z,1008.92
2016-05-25T08:07:37.855Z,1008.96
2016-05-25T08:08:37.903Z,1008.93
2016-05-25T08:09:37.953Z,1008.93
2016-05-25T08:10:38.003Z,1008.92
2016-05-25T08:11:38.053Z,1008.93
2016-05-25T08:12:38.102Z,1008.91
2016-05-25T08:13:38.151Z,1008.92
2016-05-25T08:14:38.201Z,1008.95
2016-05-25T08:15:38.251Z,1008.93
2016-05-25T08:16:38.300Z,1008.92
2016-05-25T08:17:38.350Z,1008.93
2016-05-25T08:18:38.399Z,1008.95
2016-05-25T08:19:38.449Z,1008.97
2016-05-25T08:20:38.515Z,1008.98
2016-05-25T08:21:38.548Z,1008.97
2016-05-25T08:22:38.598Z,1008.97
2016-05-25T08:23:38.648Z,1008.96
2016-05-25T08:24:38.696Z,1008.94
2016-05-25T08:25:38.746Z,1008.98
2016-05-25T08:26:38.795Z,1008.95
2016-05-25T08:27:38.845Z,1008.98
2016-05-25T08:28:41.707Z,1008.96
2016-05-25T08:29:38.945Z,1008.97
2016-05-25T08:30:38.994Z,1008.97
2016-05-25T08:31:39.044Z,1008.96
2016-05-25T08:32:39.093Z,1009
2016-05-25T08:33:39.143Z,1008.95
2016-05-25T08:34:39.192Z,1008.94
2016-05-25T08:35:39.242Z,1008.98
2016-05-25T08:36:39.291Z,1008.96
2016-05-25T08:37:39.342Z,1008.94
2016-05-25T08:38:39.391Z,1008.94
2016-05-25T08:39:39.441Z,1008.9
2016-05-25T08:40:39.489Z,1008.92
2016-05-25T08:41:39.539Z,1008.93
2016-05-25T08:42:39.589Z,1008.92
2016-05-25T08:43:39.638Z,1008.93
2016-05-25T08:44:39.688Z,1008.95
2016-05-25T08:45:39.753Z,1008.96
2016-05-25T08:46:39.787Z,1008.96
2016-05-25T08:47:39.852Z,1008.98
2016-05-25T08:48:39.902Z,1008.95
2016-05-25T08:49:39.951Z,1008.94
2016-05-25T08:50:40.001Z,1008.98
2016-05-25T08:51:40.051Z,1008.97
2016-05-25T08:52:40.101Z,1009.01
2016-05-25T08:53:42.212Z,1008.96
2016-05-25T08:54:40.199Z,1008.96
2016-05-25T08:55:40.249Z,1008.98
2016-05-25T08:56:40.298Z,1008.96
2016-05-25T08:57:40.348Z,1008.98
2016-05-25T08:58:41.320Z,1008.97
2016-05-25T08:59:40.448Z,1008.96
2016-05-25T09:00:40.497Z,1008.96
2016-05-25T09:01:40.546Z,1009.01
2016-05-25T09:02:40.596Z,1009.02
2016-05-25T09:03:40.645Z,1008.97
2016-05-25T09:04:40.694Z,1009
2016-05-25T09:05:40.745Z,1009.01
2016-05-25T09:06:40.794Z,1009.02
2016-05-25T09:07:40.844Z,1009
2016-05-25T09:08:40.894Z,1008.97
2016-05-25T09:09:40.942Z,1009.01
2016-05-25T09:10:40.992Z,1008.99
2016-05-25T09:11:41.042Z,1009.02
2016-05-25T09:12:41.092Z,1009.03
2016-05-25T09:13:41.141Z,1009.01
2016-05-25T09:14:41.191Z,1008.99
2016-05-25T09:15:41.241Z,1008.98
2016-05-25T09:16:41.947Z,1008.97
2016-05-25T09:17:41.354Z,1008.98
2016-05-25T09:18:41.389Z,1008.97
2016-05-25T09:19:41.438Z,1008.98
2016-05-25T09:20:41.488Z,1009.01
2016-05-25T09:21:41.538Z,1009.04
2016-05-25T09:22:41.588Z,1009.05
2016-05-25T09:23:41.637Z,1008.98
2016-05-25T09:24:41.687Z,1008.99
2016-05-25T09:25:41.735Z,1008.99
2016-05-25T09:26:41.785Z,1008.98
2016-05-25T09:27:41.850Z,1008.98
2016-05-25T09:28:41.884Z,1008.96
2016-05-25T09:29:41.934Z,1008.99
2016-05-25T09:30:41.984Z,1008.98
2016-05-25T09:31:42.221Z,1008.98
2016-05-25T09:32:42.083Z,1008.97
2016-05-25T09:33:42.148Z,1008.97
2016-05-25T09:34:42.182Z,1008.95
2016-05-25T09:35:42.247Z,1008.98
2016-05-25T09:36:42.297Z,1008.99
2016-05-25T09:37:42.346Z,1008.98
2016-05-25T09:38:42.396Z,1008.97
2016-05-25T09:39:42.430Z,1008.91
2016-05-25T09:40:42.494Z,1008.94
2016-05-25T09:41:42.529Z,1008.97
2016-05-25T09:42:42.595Z,1008.99
2016-05-25T09:43:42.628Z,1008.99
2016-05-25T09:44:42.693Z,1008.96
2016-05-25T09:45:42.727Z,1009.03
2016-05-25T09:46:43.417Z,1008.98
2016-05-25T09:47:42.842Z,1008.99
2016-05-25T09:48:42.891Z,1009.01
2016-05-25T09:49:42.941Z,1009.01
2016-05-25T09:50:42.991Z,1008.98
2016-05-25T09:51:43.040Z,1008.99
2016-05-25T09:52:43.090Z,1008.98
2016-05-25T09:53:43.140Z,1008.99
2016-05-25T09:54:43.188Z,1009.01
2016-05-25T09:55:43.238Z,1009.03
2016-05-25T09:56:43.287Z,1009.03
2016-05-25T09:57:43.338Z,1009.06
2016-05-25T09:58:43.387Z,1009.02
2016-05-25T09:59:43.436Z,1009.03
2016-05-25T10:00:43.486Z,1009.04
2016-05-25T10:01:43.567Z,1009.03
2016-05-25T10:02:44.242Z,1009.07
2016-05-25T10:03:43.634Z,1009.05
2016-05-25T10:04:43.684Z,1009.07
2016-05-25T10:05:43.734Z,1009.08
2016-05-25T10:06:43.783Z,1009.08
2016-05-25T10:07:43.833Z,1009.07
2016-05-25T10:08:43.883Z,1009.07
2016-05-25T10:09:43.933Z,1009.07
2016-05-25T10:10:43.981Z,1009.08
2016-05-25T10:11:44.031Z,1009.14
2016-05-25T10:12:44.081Z,1009.09
2016-05-25T10:13:44.130Z,1009.1
2016-05-25T10:14:44.180Z,1009.05
2016-05-25T10:15:44.230Z,1009.06
2016-05-25T10:16:44.280Z,1009.04
2016-05-25T10:17:44.330Z,1009.06
2016-05-25T10:18:44.378Z,1009.05
2016-05-25T10:19:44.427Z,1009.02
2016-05-25T10:20:46.258Z,1009.01
2016-05-25T10:21:44.527Z,1008.93
2016-05-25T10:22:44.577Z,1008.98
2016-05-25T10:23:44.641Z,1008.97
2016-05-25T10:24:44.692Z,1008.95
2016-05-25T10:25:44.741Z,1008.91
2016-05-25T10:26:44.790Z,1008.91
2016-05-25T10:27:44.841Z,1008.91
2016-05-25T10:28:44.874Z,1008.91
2016-05-25T10:29:44.939Z,1008.91
2016-05-25T10:30:44.989Z,1008.9
2016-05-25T10:31:45.023Z,1008.94
2016-05-25T10:32:45.354Z,1008.89
2016-05-25T10:33:45.122Z,1008.9
2016-05-25T10:34:45.187Z,1008.94
2016-05-25T10:35:45.237Z,1008.89
2016-05-25T10:36:45.286Z,1008.91
2016-05-25T10:37:45.336Z,1008.87
2016-05-25T10:38:45.386Z,1008.87
2016-05-25T10:39:45.434Z,1008.88
2016-05-25T10:40:45.484Z,1008.85
2016-05-25T10:41:45.534Z,1008.81
2016-05-25T10:42:45.584Z,1008.81
2016-05-25T10:43:45.633Z,1008.82
2016-05-25T10:44:45.682Z,1008.84
2016-05-25T10:45:45.732Z,1008.83
2016-05-25T10:46:45.782Z,1008.87
2016-05-25T10:47:45.831Z,1008.87
2016-05-25T10:48:45.881Z,1008.84
2016-05-25T10:49:45.930Z,1008.87
2016-05-25T10:50:45.980Z,1008.89
2016-05-25T10:51:46.030Z,1008.9
2016-05-25T10:52:47.658Z,1008.89
2016-05-25T10:53:46.129Z,1008.88
2016-05-25T10:54:46.194Z,1008.88
2016-05-25T10:55:46.228Z,1008.9
2016-05-25T10:56:46.277Z,1008.87
2016-05-25T10:57:47.765Z,1008.85
2016-05-25T10:58:46.376Z,1008.89
2016-05-25T10:59:46.426Z,1008.87
2016-05-25T11:00:46.476Z,1008.91
2016-05-25T11:01:46.525Z,1008.91
2016-05-25T11:02:46.576Z,1008.9
2016-05-25T11:03:46.624Z,1008.86
2016-05-25T11:04:46.690Z,1008.86
2016-05-25T11:05:46.740Z,1008.86
2016-05-25T11:06:46.773Z,1008.82
2016-05-25T11:07:46.839Z,1008.82
2016-05-25T11:08:46.887Z,1008.82
2016-05-25T11:09:46.937Z,1008.79
2016-05-25T11:10:46.987Z,1008.86
2016-05-25T11:11:47.021Z,1008.85
2016-05-25T11:12:47.086Z,1008.81
2016-05-25T11:13:47.119Z,1008.79
2016-05-25T11:14:47.185Z,1008.87
2016-05-25T11:15:47.235Z,1008.86
2016-05-25T11:16:47.644Z,1008.86
2016-05-25T11:17:47.334Z,1008.82
2016-05-25T11:18:47.384Z,1008.85
2016-05-25T11:19:47.433Z,1008.81
2016-05-25T11:20:47.482Z,1008.84
2016-05-25T11:21:47.533Z,1008.86
2016-05-25T11:22:47.597Z,1008.83
2016-05-25T11:23:47.632Z,1008.85
2016-05-25T11:24:47.680Z,1008.84
2016-05-25T11:25:47.763Z,1008.84
2016-05-25T11:26:47.780Z,1008.89
2016-05-25T11:27:47.829Z,1008.85
2016-05-25T11:28:47.879Z,1008.81
2016-05-25T11:29:47.929Z,1008.78
2016-05-25T11:30:47.978Z,1008.83
2016-05-25T11:31:48.028Z,1008.83
2016-05-25T11:32:48.562Z,1008.77
2016-05-25T11:33:48.127Z,1008.84
2016-05-25T11:34:48.177Z,1008.85
2016-05-25T11:35:48.226Z,1008.85
2016-05-25T11:36:48.275Z,1008.92
2016-05-25T11:37:48.326Z,1008.87
2016-05-25T11:38:48.375Z,1008.92
2016-05-25T11:39:48.425Z,1008.87
2016-05-25T11:40:48.474Z,1008.88
2016-05-25T11:41:48.523Z,1008.88
2016-05-25T11:42:50.511Z,1008.92
2016-05-25T11:43:48.622Z,1008.92
2016-05-25T11:44:48.672Z,1008.91
2016-05-25T11:45:48.722Z,1008.96
2016-05-25T11:46:48.772Z,1008.94
2016-05-25T11:47:49.415Z,1008.94
2016-05-25T11:48:48.886Z,1008.92
2016-05-25T11:49:48.920Z,1008.93
2016-05-25T11:50:48.985Z,1008.93
2016-05-25T11:51:49.019Z,1008.94
2016-05-25T11:52:49.069Z,1008.92
2016-05-25T11:53:49.118Z,1008.87
2016-05-25T11:54:49.168Z,1008.82
2016-05-25T11:55:49.218Z,1008.84
2016-05-25T11:56:49.266Z,1008.85
2016-05-25T11:57:49.332Z,1008.87
2016-05-25T11:58:49.382Z,1008.85
2016-05-25T11:59:49.447Z,1008.82
2016-05-25T12:00:49.481Z,1008.84
2016-05-25T12:01:49.530Z,1008.85
2016-05-25T12:02:49.596Z,1008.83
2016-05-25T12:03:49.630Z,1008.85
2016-05-25T12:04:49.679Z,1008.82
2016-05-25T12:05:49.728Z,1008.79
2016-05-25T12:06:49.778Z,1008.8
2016-05-25T12:07:49.828Z,1008.79
2016-05-25T12:08:49.878Z,1008.8